Accueil
METAR-TAF:

METAR-TAF

Aéroports :

Weatherford, Oklahoma, États-Unis

latitude: 35-32-45N, longitude: 098-40-07W, altitude: 489 m

Observation

Le bulletin a été fait il y a 23 minutes, à 17:15 UTC
Vent 6 kt de nord/nord-ouest
Température 18°C
Humidité 73%
Pression 1020 hPa
Visibilité: 16.1 km
Ciel couvert à une hauteur de 2100 ft

METAR: KOJA 201715Z AUTO 34006KT 10SM OVC021 18/13 A3013 RMK AO2 LTG DSNT S

Heure: 12:38 (17:38 UTC)


TAF: absent

Observations et prévisions météorologiques de plus de 4000 aéroports (messages METAR et TAF).

Les stations disponibles sont représentées par des disques jaunes et rouges sur la carte.

Passer la souris dessus pour voir le nom de la station.

Cliquer dessus pour voir les observations et prévisions météorologiques.

Pour changer de carte: cliquez sur les boutons verts avec une croix noire pour zoomer, sur le bouton vert avec un tiret pour effectuer un zoom arrière, ou sur les flèches vertes pour les cartes adjacentes.


METAR-TAF: